Meteo Giornale » Osservazioni meteo Peru » Iquitos
ore: 22:00 - Osservazioni Meteo Iquitos
Lat. 3° 45' S Lon. 73° 15' W Alt. 125 metri s.l.m.
24 °C
Sereno
Temp. 24 Ore
22 °C
34 °C
Nord
1.8 Km/h
Dew point 23 °C
Umidità 94 %
Visibilità 10 Km
Il sole sorge alle ore 05:52
Il sole tramonta alle ore 17:54
| Data e Ora | Cielo e Fenomeni | T °C | DP °C | Um. % | Pres. hPa | Vis. km | Vento km/h | |
|---|---|---|---|---|---|---|---|---|
| Oggi h: 22:00 | Sereno | 24 | 23 | 94 | 1011 | 10 | N 1.8 | |
| Oggi h: 21:00 | Sereno | 25 | 23 | 88 | 1011 | 10 | N 1.8 | |
| Oggi h: 20:00 | Sereno | 25 | 22 | 83 | 1011 | 10 | N 5.5 | |
| Oggi h: 19:00 | Sereno | 27 | 22 | 74 | 1010 | 10 | N 0 | |
| Oggi h: 18:00 | Poco Nuvoloso | 29 | 22 | 66 | 1009 | 10 | N 3.7 | |
| Oggi h: 17:00 | Poco Nuvoloso | 31 | 24 | 66 | 1008 | 10 | N/NO 9.3 | |
| Oggi h: 16:00 | Nuvoloso | 33 | 24 | 59 | 1008 | 10 | O 7.4 | |
| Oggi h: 15:00 | Nuvoloso | 34 | 25 | 59 | 1009 | 10 | N/NO 9.3 | |
| Oggi h: 14:00 | Nuvoloso | 33 | 24 | 59 | 1010 | 10 | N 13 | |
| Oggi h: 13:00 | Molto Nuvoloso | 33 | 24 | 59 | 1011 | 10 | N 7.4 | |
| Oggi h: 12:00 | Nuvoloso | 32 | 25 | 66 | 1013 | 10 | O/NO 9.3 | |
| Oggi h: 11:00 | Nuvoloso | 32 | 26 | 70 | 1013 | 10 | N 5.5 | |
| Oggi h: 10:00 | Sereno | 30 | 25 | 74 | 1014 | 10 | O/NO 9.3 | |
| Oggi h: 09:00 | Poco Nuvoloso | 28 | 25 | 83 | 1013 | 10 | O/NO 9.3 | |
| Oggi h: 08:00 | Poco Nuvoloso | 27 | 25 | 88 | 1013 | 10 | O/NO 9.3 | |
| Oggi h: 07:00 | Nuvoloso | 24 | 23 | 94 | 1012 | 10 | N 3.7 | |
| Oggi h: 06:00 | Sereno | 22 | 21 | 94 | 1011 | 10 | N 0 | |
| Oggi h: 05:00 | Sereno | 23 | 22 | 94 | 1010 | 10 | N 0 | |
| Oggi h: 04:00 | Sereno | 23 | 22 | 94 | 1010 | 10 | N 0 | |
| Oggi h: 03:00 | Sereno | 23 | 22 | 94 | 1010 | 10 | N 3.7 | |
| Oggi h: 02:00 | Sereno | 25 | 23 | 88 | 1011 | 10 | N 5.5 | |
| Oggi h: 01:00 | Sereno | 24 | 23 | 94 | 1012 | 10 | N 3.7 | |
| Oggi h: 00:00 | Sereno | 24 | 23 | 94 | 1012 | 10 | N 3.7 | |
| Ieri h: 23:00 | Sereno | 24 | 23 | 94 | 1012 | 10 | N 1.8 | |



